Yining, China
Current Conditions -  °F | °C
As of 11:30 PM on Thursday 30 Oct 2014 (Local Time) from UAAA Reporting Station
Haze Haze  
Wind Chill: 32°   Ceiling: 700
Heat Index: 32°   Visibility: 1mi
Dew Point: 28°   Wind: 2mph
Humidity: 87%   Direction: 100°E
Pressure: 30.56"   Gusts: NA
Location:  43.9°N, 81.35°E
Report Text: UAAA 301530Z 10001MPS 1700 R23R/P2000U R23L/P2000N BR OVC007M00/M02 Q1035 R88/CLRD65 NOSIG
Loading
Personal Weather Stations






























Interactive Weather Map
Tropical Storm Tracking
New forecast layout! Learn more

10-Day Weather Forecast

Advertisements
Track Severe Weather on mobile